sensor_id;sensor_type;location;lat;lon;timestamp;P1;durP1;ratioP1;P2;durP2;ratioP2
8415;SDS011;4245;42.120;24.732;2022-11-20T00:01:05;42.07;;;25.23;;
8415;SDS011;4245;42.120;24.732;2022-11-20T00:03:32;46.63;;;27.37;;
8415;SDS011;4245;42.120;24.732;2022-11-20T00:06:01;49.40;;;27.43;;
8415;SDS011;4245;42.120;24.732;2022-11-20T00:08:28;44.87;;;26.97;;
8415;SDS011;4245;42.120;24.732;2022-11-20T00:10:55;44.57;;;27.90;;
8415;SDS011;4245;42.120;24.732;2022-11-20T00:13:22;45.83;;;27.67;;
8415;SDS011;4245;42.120;24.732;2022-11-20T00:15:56;46.23;;;27.53;;
8415;SDS011;4245;42.120;24.732;2022-11-20T00:18:23;43.97;;;27.00;;
8415;SDS011;4245;42.120;24.732;2022-11-20T00:20:50;43.70;;;26.57;;
8415;SDS011;4245;42.120;24.732;2022-11-20T00:23:18;41.50;;;26.10;;
8415;SDS011;4245;42.120;24.732;2022-11-20T00:25:45;43.73;;;26.93;;
8415;SDS011;4245;42.120;24.732;2022-11-20T00:28:12;43.27;;;26.67;;
8415;SDS011;4245;42.120;24.732;2022-11-20T00:30:39;42.43;;;26.70;;
8415;SDS011;4245;42.120;24.732;2022-11-20T00:33:06;44.73;;;26.90;;
8415;SDS011;4245;42.120;24.732;2022-11-20T00:35:32;41.10;;;26.60;;
8415;SDS011;4245;42.120;24.732;2022-11-20T00:37:59;47.90;;;27.80;;
8415;SDS011;4245;42.120;24.732;2022-11-20T00:40:27;40.40;;;23.50;;
8415;SDS011;4245;42.120;24.732;2022-11-20T00:42:54;42.30;;;26.40;;
8415;SDS011;4245;42.120;24.732;2022-11-20T00:45:21;42.53;;;26.60;;
8415;SDS011;4245;42.120;24.732;2022-11-20T00:47:48;42.83;;;25.97;;
8415;SDS011;4245;42.120;24.732;2022-11-20T00:50:14;43.50;;;25.37;;
8415;SDS011;4245;42.120;24.732;2022-11-20T00:52:41;44.17;;;27.03;;
8415;SDS011;4245;42.120;24.732;2022-11-20T00:55:08;42.97;;;26.37;;
8415;SDS011;4245;42.120;24.732;2022-11-20T00:57:36;41.43;;;25.20;;
8415;SDS011;4245;42.120;24.732;2022-11-20T01:00:03;42.00;;;25.27;;
8415;SDS011;4245;42.120;24.732;2022-11-20T01:02:31;41.80;;;25.57;;
8415;SDS011;4245;42.120;24.732;2022-11-20T01:04:58;45.43;;;24.83;;
8415;SDS011;4245;42.120;24.732;2022-11-20T01:07:25;45.33;;;26.30;;
8415;SDS011;4245;42.120;24.732;2022-11-20T01:09:51;39.07;;;25.83;;
8415;SDS011;4245;42.120;24.732;2022-11-20T01:12:18;46.57;;;25.87;;
8415;SDS011;4245;42.120;24.732;2022-11-20T01:14:46;38.73;;;25.40;;
8415;SDS011;4245;42.120;24.732;2022-11-20T01:17:13;42.17;;;25.83;;
8415;SDS011;4245;42.120;24.732;2022-11-20T01:19:40;40.93;;;25.67;;
8415;SDS011;4245;42.120;24.732;2022-11-20T01:22:07;40.50;;;25.77;;
8415;SDS011;4245;42.120;24.732;2022-11-20T01:24:33;43.93;;;25.97;;
8415;SDS011;4245;42.120;24.732;2022-11-20T01:27:00;45.13;;;26.83;;
8415;SDS011;4245;42.120;24.732;2022-11-20T01:29:27;44.50;;;27.07;;
8415;SDS011;4245;42.120;24.732;2022-11-20T01:31:55;41.30;;;26.53;;
8415;SDS011;4245;42.120;24.732;2022-11-20T01:34:22;42.20;;;26.93;;
8415;SDS011;4245;42.120;24.732;2022-11-20T01:36:50;46.47;;;26.00;;
8415;SDS011;4245;42.120;24.732;2022-11-20T01:39:18;46.47;;;26.20;;
8415;SDS011;4245;42.120;24.732;2022-11-20T01:41:47;42.13;;;26.87;;
8415;SDS011;4245;42.120;24.732;2022-11-20T01:44:48;41.00;;;25.83;;
8415;SDS011;4245;42.120;24.732;2022-11-20T01:47:21;41.63;;;26.00;;
8415;SDS011;4245;42.120;24.732;2022-11-20T01:50:03;42.00;;;25.63;;
8415;SDS011;4245;42.120;24.732;2022-11-20T01:52:36;35.50;;;23.00;;
8415;SDS011;4245;42.120;24.732;2022-11-20T01:55:07;36.20;;;24.00;;
8415;SDS011;4245;42.120;24.732;2022-11-20T01:57:37;41.47;;;24.27;;
8415;SDS011;4245;42.120;24.732;2022-11-20T02:00:07;37.13;;;23.20;;
8415;SDS011;4245;42.120;24.732;2022-11-20T02:02:38;36.90;;;22.27;;
8415;SDS011;4245;42.120;24.732;2022-11-20T02:05:10;33.43;;;23.03;;
8415;SDS011;4245;42.120;24.732;2022-11-20T02:07:46;38.53;;;24.10;;
8415;SDS011;4245;42.120;24.732;2022-11-20T02:10:14;38.53;;;23.30;;
8415;SDS011;4245;42.120;24.732;2022-11-20T02:12:41;29.67;;;18.80;;
8415;SDS011;4245;42.120;24.732;2022-11-20T02:15:25;35.07;;;21.93;;
8415;SDS011;4245;42.120;24.732;2022-11-20T02:17:53;33.70;;;20.07;;
8415;SDS011;4245;42.120;24.732;2022-11-20T02:20:20;24.27;;;14.60;;
8415;SDS011;4245;42.120;24.732;2022-11-20T02:22:48;28.90;;;16.83;;
8415;SDS011;4245;42.120;24.732;2022-11-20T02:25:22;29.10;;;18.27;;
8415;SDS011;4245;42.120;24.732;2022-11-20T02:27:51;31.67;;;19.03;;
8415;SDS011;4245;42.120;24.732;2022-11-20T02:30:18;33.53;;;21.23;;
8415;SDS011;4245;42.120;24.732;2022-11-20T02:32:45;30.07;;;19.87;;
8415;SDS011;4245;42.120;24.732;2022-11-20T02:38:07;31.53;;;19.03;;
8415;SDS011;4245;42.120;24.732;2022-11-20T02:40:36;34.17;;;21.50;;
8415;SDS011;4245;42.120;24.732;2022-11-20T02:43:03;33.03;;;20.37;;
8415;SDS011;4245;42.120;24.732;2022-11-20T02:45:29;35.30;;;20.70;;
8415;SDS011;4245;42.120;24.732;2022-11-20T02:47:56;35.77;;;22.50;;
8415;SDS011;4245;42.120;24.732;2022-11-20T02:50:23;36.60;;;23.60;;
8415;SDS011;4245;42.120;24.732;2022-11-20T02:52:50;33.13;;;21.70;;
8415;SDS011;4245;42.120;24.732;2022-11-20T02:55:16;33.67;;;21.70;;
8415;SDS011;4245;42.120;24.732;2022-11-20T02:57:45;33.80;;;22.17;;
8415;SDS011;4245;42.120;24.732;2022-11-20T03:00:12;33.63;;;21.57;;
8415;SDS011;4245;42.120;24.732;2022-11-20T03:02:39;36.73;;;22.10;;
8415;SDS011;4245;42.120;24.732;2022-11-20T03:05:06;30.67;;;20.63;;
8415;SDS011;4245;42.120;24.732;2022-11-20T03:07:33;35.73;;;21.93;;
8415;SDS011;4245;42.120;24.732;2022-11-20T03:10:00;31.57;;;20.93;;
8415;SDS011;4245;42.120;24.732;2022-11-20T03:12:27;30.10;;;19.63;;
8415;SDS011;4245;42.120;24.732;2022-11-20T03:14:55;33.43;;;21.03;;
8415;SDS011;4245;42.120;24.732;2022-11-20T03:17:21;34.20;;;20.97;;
8415;SDS011;4245;42.120;24.732;2022-11-20T03:19:48;32.30;;;20.00;;
8415;SDS011;4245;42.120;24.732;2022-11-20T03:22:15;29.47;;;20.10;;
8415;SDS011;4245;42.120;24.732;2022-11-20T03:24:42;32.97;;;19.73;;
8415;SDS011;4245;42.120;24.732;2022-11-20T03:27:09;35.10;;;21.33;;
8415;SDS011;4245;42.120;24.732;2022-11-20T03:29:35;37.73;;;20.57;;
8415;SDS011;4245;42.120;24.732;2022-11-20T03:32:04;31.37;;;19.63;;
8415;SDS011;4245;42.120;24.732;2022-11-20T03:34:31;29.97;;;17.90;;
8415;SDS011;4245;42.120;24.732;2022-11-20T03:36:58;26.63;;;17.30;;
8415;SDS011;4245;42.120;24.732;2022-11-20T03:39:24;31.10;;;18.57;;
8415;SDS011;4245;42.120;24.732;2022-11-20T03:41:51;31.20;;;19.03;;
8415;SDS011;4245;42.120;24.732;2022-11-20T03:44:20;31.80;;;20.17;;
8415;SDS011;4245;42.120;24.732;2022-11-20T03:46:47;26.23;;;18.17;;
8415;SDS011;4245;42.120;24.732;2022-11-20T03:49:16;31.47;;;18.77;;
8415;SDS011;4245;42.120;24.732;2022-11-20T03:51:42;27.40;;;17.37;;
8415;SDS011;4245;42.120;24.732;2022-11-20T03:54:09;24.23;;;16.13;;
8415;SDS011;4245;42.120;24.732;2022-11-20T03:56:37;24.03;;;15.23;;
8415;SDS011;4245;42.120;24.732;2022-11-20T03:59:04;26.63;;;14.90;;
8415;SDS011;4245;42.120;24.732;2022-11-20T04:01:32;26.60;;;14.93;;
8415;SDS011;4245;42.120;24.732;2022-11-20T04:04:01;23.47;;;14.33;;
8415;SDS011;4245;42.120;24.732;2022-11-20T04:06:30;23.30;;;13.50;;
8415;SDS011;4245;42.120;24.732;2022-11-20T04:09:00;27.33;;;14.30;;
8415;SDS011;4245;42.120;24.732;2022-11-20T04:11:27;20.70;;;13.10;;
8415;SDS011;4245;42.120;24.732;2022-11-20T04:13:56;22.60;;;12.83;;
8415;SDS011;4245;42.120;24.732;2022-11-20T04:16:25;28.50;;;14.57;;
8415;SDS011;4245;42.120;24.732;2022-11-20T04:18:52;34.13;;;13.63;;
8415;SDS011;4245;42.120;24.732;2022-11-20T04:21:20;23.30;;;14.97;;
8415;SDS011;4245;42.120;24.732;2022-11-20T04:23:48;29.63;;;16.13;;
8415;SDS011;4245;42.120;24.732;2022-11-20T04:26:15;24.10;;;14.07;;
8415;SDS011;4245;42.120;24.732;2022-11-20T04:28:43;23.93;;;14.90;;
8415;SDS011;4245;42.120;24.732;2022-11-20T04:31:10;23.77;;;15.27;;
8415;SDS011;4245;42.120;24.732;2022-11-20T04:33:39;25.77;;;13.97;;
8415;SDS011;4245;42.120;24.732;2022-11-20T04:36:07;24.00;;;12.63;;
8415;SDS011;4245;42.120;24.732;2022-11-20T04:38:38;22.83;;;12.43;;
8415;SDS011;4245;42.120;24.732;2022-11-20T04:41:06;21.40;;;11.03;;
8415;SDS011;4245;42.120;24.732;2022-11-20T04:43:36;18.90;;;10.40;;
8415;SDS011;4245;42.120;24.732;2022-11-20T04:46:02;16.13;;;9.70;;
8415;SDS011;4245;42.120;24.732;2022-11-20T04:48:29;19.37;;;12.30;;
8415;SDS011;4245;42.120;24.732;2022-11-20T04:50:57;22.90;;;11.90;;
8415;SDS011;4245;42.120;24.732;2022-11-20T04:53:28;18.77;;;12.13;;
8415;SDS011;4245;42.120;24.732;2022-11-20T04:55:58;21.00;;;11.47;;
8415;SDS011;4245;42.120;24.732;2022-11-20T04:58:27;21.10;;;11.20;;
8415;SDS011;4245;42.120;24.732;2022-11-20T05:01:00;16.20;;;10.53;;
8415;SDS011;4245;42.120;24.732;2022-11-20T05:03:27;22.20;;;12.40;;
8415;SDS011;4245;42.120;24.732;2022-11-20T05:05:54;23.43;;;12.00;;
8415;SDS011;4245;42.120;24.732;2022-11-20T05:08:20;22.60;;;11.33;;
8415;SDS011;4245;42.120;24.732;2022-11-20T05:10:47;26.00;;;10.90;;
8415;SDS011;4245;42.120;24.732;2022-11-20T05:13:14;20.37;;;11.70;;
8415;SDS011;4245;42.120;24.732;2022-11-20T05:15:42;21.70;;;11.13;;
8415;SDS011;4245;42.120;24.732;2022-11-20T05:18:09;20.77;;;11.40;;
8415;SDS011;4245;42.120;24.732;2022-11-20T05:20:35;22.23;;;11.23;;
8415;SDS011;4245;42.120;24.732;2022-11-20T05:23:02;24.97;;;11.37;;
8415;SDS011;4245;42.120;24.732;2022-11-20T05:25:29;20.57;;;11.60;;
8415;SDS011;4245;42.120;24.732;2022-11-20T05:27:56;24.87;;;12.07;;
8415;SDS011;4245;42.120;24.732;2022-11-20T05:30:22;18.33;;;11.13;;
8415;SDS011;4245;42.120;24.732;2022-11-20T05:32:51;17.33;;;10.80;;
8415;SDS011;4245;42.120;24.732;2022-11-20T05:35:17;24.17;;;12.30;;
8415;SDS011;4245;42.120;24.732;2022-11-20T05:37:44;17.67;;;11.53;;
8415;SDS011;4245;42.120;24.732;2022-11-20T05:40:11;21.10;;;9.40;;
8415;SDS011;4245;42.120;24.732;2022-11-20T05:42:39;15.43;;;8.93;;
8415;SDS011;4245;42.120;24.732;2022-11-20T05:45:08;15.00;;;8.10;;
8415;SDS011;4245;42.120;24.732;2022-11-20T05:47:35;20.07;;;9.57;;
8415;SDS011;4245;42.120;24.732;2022-11-20T05:50:04;19.20;;;10.70;;
8415;SDS011;4245;42.120;24.732;2022-11-20T05:52:31;20.17;;;9.93;;
8415;SDS011;4245;42.120;24.732;2022-11-20T05:54:58;21.80;;;10.50;;
8415;SDS011;4245;42.120;24.732;2022-11-20T05:57:25;19.67;;;10.33;;
8415;SDS011;4245;42.120;24.732;2022-11-20T05:59:52;18.10;;;10.17;;
8415;SDS011;4245;42.120;24.732;2022-11-20T06:02:18;19.43;;;10.80;;
8415;SDS011;4245;42.120;24.732;2022-11-20T06:04:45;22.60;;;10.27;;
8415;SDS011;4245;42.120;24.732;2022-11-20T06:07:13;16.40;;;9.03;;
8415;SDS011;4245;42.120;24.732;2022-11-20T06:09:40;19.17;;;8.87;;
8415;SDS011;4245;42.120;24.732;2022-11-20T06:12:07;17.60;;;8.13;;
8415;SDS011;4245;42.120;24.732;2022-11-20T06:14:34;14.03;;;7.77;;
8415;SDS011;4245;42.120;24.732;2022-11-20T06:17:00;17.83;;;8.90;;
8415;SDS011;4245;42.120;24.732;2022-11-20T06:19:27;17.73;;;10.47;;
8415;SDS011;4245;42.120;24.732;2022-11-20T06:21:54;17.00;;;9.23;;
8415;SDS011;4245;42.120;24.732;2022-11-20T06:24:22;15.57;;;9.07;;
8415;SDS011;4245;42.120;24.732;2022-11-20T06:26:50;19.40;;;8.77;;
8415;SDS011;4245;42.120;24.732;2022-11-20T06:29:17;19.93;;;9.80;;
8415;SDS011;4245;42.120;24.732;2022-11-20T06:31:44;18.00;;;9.30;;
8415;SDS011;4245;42.120;24.732;2022-11-20T06:34:10;14.93;;;9.13;;
8415;SDS011;4245;42.120;24.732;2022-11-20T06:36:37;15.20;;;8.83;;
8415;SDS011;4245;42.120;24.732;2022-11-20T06:39:04;20.00;;;9.33;;
8415;SDS011;4245;42.120;24.732;2022-11-20T06:41:32;14.70;;;8.47;;
8415;SDS011;4245;42.120;24.732;2022-11-20T06:43:59;13.73;;;8.17;;
8415;SDS011;4245;42.120;24.732;2022-11-20T06:46:26;13.83;;;7.63;;
8415;SDS011;4245;42.120;24.732;2022-11-20T06:48:53;15.57;;;8.27;;
8415;SDS011;4245;42.120;24.732;2022-11-20T06:51:19;15.93;;;8.90;;
8415;SDS011;4245;42.120;24.732;2022-11-20T06:53:47;13.77;;;8.47;;
8415;SDS011;4245;42.120;24.732;2022-11-20T06:56:14;16.07;;;8.60;;
8415;SDS011;4245;42.120;24.732;2022-11-20T06:58:42;15.07;;;8.33;;
8415;SDS011;4245;42.120;24.732;2022-11-20T07:01:10;13.60;;;8.00;;
8415;SDS011;4245;42.120;24.732;2022-11-20T07:03:38;13.23;;;8.13;;
8415;SDS011;4245;42.120;24.732;2022-11-20T07:06:05;14.97;;;8.13;;
8415;SDS011;4245;42.120;24.732;2022-11-20T07:08:33;21.10;;;10.53;;
8415;SDS011;4245;42.120;24.732;2022-11-20T07:11:01;16.17;;;10.20;;
8415;SDS011;4245;42.120;24.732;2022-11-20T07:13:30;18.80;;;9.57;;
8415;SDS011;4245;42.120;24.732;2022-11-20T07:16:00;15.83;;;8.97;;
8415;SDS011;4245;42.120;24.732;2022-11-20T07:18:28;14.10;;;8.70;;
8415;SDS011;4245;42.120;24.732;2022-11-20T07:20:54;16.10;;;9.03;;
8415;SDS011;4245;42.120;24.732;2022-11-20T07:23:21;15.93;;;8.93;;
8415;SDS011;4245;42.120;24.732;2022-11-20T07:25:48;13.23;;;8.10;;
8415;SDS011;4245;42.120;24.732;2022-11-20T07:28:15;13.97;;;9.30;;
8415;SDS011;4245;42.120;24.732;2022-11-20T07:30:42;16.00;;;9.30;;
8415;SDS011;4245;42.120;24.732;2022-11-20T07:33:10;16.77;;;9.30;;
8415;SDS011;4245;42.120;24.732;2022-11-20T07:35:37;17.93;;;9.30;;
8415;SDS011;4245;42.120;24.732;2022-11-20T07:38:04;17.13;;;9.83;;
8415;SDS011;4245;42.120;24.732;2022-11-20T07:40:31;16.63;;;9.40;;
8415;SDS011;4245;42.120;24.732;2022-11-20T07:42:57;15.10;;;9.00;;
8415;SDS011;4245;42.120;24.732;2022-11-20T07:45:39;16.80;;;8.50;;
8415;SDS011;4245;42.120;24.732;2022-11-20T07:48:06;18.67;;;8.37;;
8415;SDS011;4245;42.120;24.732;2022-11-20T07:50:35;23.23;;;8.73;;
8415;SDS011;4245;42.120;24.732;2022-11-20T07:53:02;19.57;;;8.07;;
8415;SDS011;4245;42.120;24.732;2022-11-20T07:55:29;15.03;;;8.47;;
8415;SDS011;4245;42.120;24.732;2022-11-20T07:57:57;17.23;;;7.60;;
8415;SDS011;4245;42.120;24.732;2022-11-20T08:00:24;18.07;;;9.73;;
8415;SDS011;4245;42.120;24.732;2022-11-20T08:02:52;19.73;;;10.70;;
8415;SDS011;4245;42.120;24.732;2022-11-20T08:05:19;30.07;;;14.00;;
8415;SDS011;4245;42.120;24.732;2022-11-20T08:07:47;31.50;;;14.87;;
8415;SDS011;4245;42.120;24.732;2022-11-20T08:10:17;32.97;;;15.73;;
8415;SDS011;4245;42.120;24.732;2022-11-20T08:12:45;20.80;;;13.23;;
8415;SDS011;4245;42.120;24.732;2022-11-20T08:15:29;28.37;;;13.97;;
8415;SDS011;4245;42.120;24.732;2022-11-20T08:18:00;22.77;;;11.87;;
8415;SDS011;4245;42.120;24.732;2022-11-20T08:20:29;25.53;;;12.93;;
8415;SDS011;4245;42.120;24.732;2022-11-20T08:23:01;34.73;;;13.70;;
8415;SDS011;4245;42.120;24.732;2022-11-20T08:25:30;41.60;;;17.13;;
8415;SDS011;4245;42.120;24.732;2022-11-20T08:27:58;29.97;;;14.37;;
8415;SDS011;4245;42.120;24.732;2022-11-20T08:30:25;27.37;;;12.90;;
8415;SDS011;4245;42.120;24.732;2022-11-20T08:32:52;26.80;;;13.10;;
8415;SDS011;4245;42.120;24.732;2022-11-20T08:35:20;25.30;;;12.53;;
8415;SDS011;4245;42.120;24.732;2022-11-20T08:37:47;24.03;;;12.37;;
8415;SDS011;4245;42.120;24.732;2022-11-20T08:40:16;19.23;;;10.23;;
8415;SDS011;4245;42.120;24.732;2022-11-20T08:42:46;17.53;;;10.20;;
8415;SDS011;4245;42.120;24.732;2022-11-20T08:45:14;19.33;;;9.20;;
8415;SDS011;4245;42.120;24.732;2022-11-20T08:47:41;17.07;;;9.50;;
8415;SDS011;4245;42.120;24.732;2022-11-20T08:50:08;15.17;;;9.43;;
8415;SDS011;4245;42.120;24.732;2022-11-20T08:52:36;14.30;;;8.73;;
8415;SDS011;4245;42.120;24.732;2022-11-20T08:55:03;15.40;;;8.87;;
8415;SDS011;4245;42.120;24.732;2022-11-20T08:57:33;21.53;;;9.30;;
8415;SDS011;4245;42.120;24.732;2022-11-20T09:00:00;13.63;;;7.30;;
8415;SDS011;4245;42.120;24.732;2022-11-20T09:02:27;10.97;;;6.20;;
8415;SDS011;4245;42.120;24.732;2022-11-20T09:04:54;14.90;;;7.45;;
8415;SDS011;4245;42.120;24.732;2022-11-20T09:07:20;10.10;;;7.18;;
8415;SDS011;4245;42.120;24.732;2022-11-20T09:09:47;13.85;;;6.78;;
8415;SDS011;4245;42.120;24.732;2022-11-20T09:12:14;13.20;;;7.45;;
8415;SDS011;4245;42.120;24.732;2022-11-20T09:14:42;16.52;;;7.75;;
8415;SDS011;4245;42.120;24.732;2022-11-20T09:17:09;16.20;;;8.52;;
8415;SDS011;4245;42.120;24.732;2022-11-20T09:19:38;21.73;;;9.68;;
8415;SDS011;4245;42.120;24.732;2022-11-20T09:22:06;17.77;;;9.48;;
8415;SDS011;4245;42.120;24.732;2022-11-20T09:24:33;14.52;;;9.75;;
8415;SDS011;4245;42.120;24.732;2022-11-20T09:27:01;14.20;;;8.27;;
8415;SDS011;4245;42.120;24.732;2022-11-20T09:29:29;18.40;;;8.60;;
8415;SDS011;4245;42.120;24.732;2022-11-20T09:31:57;19.67;;;8.88;;
8415;SDS011;4245;42.120;24.732;2022-11-20T09:34:24;17.83;;;8.77;;
8415;SDS011;4245;42.120;24.732;2022-11-20T09:36:51;13.98;;;9.02;;
8415;SDS011;4245;42.120;24.732;2022-11-20T09:39:18;14.82;;;9.05;;
8415;SDS011;4245;42.120;24.732;2022-11-20T09:44:39;15.23;;;9.40;;
8415;SDS011;4245;42.120;24.732;2022-11-20T09:47:28;18.25;;;8.93;;
8415;SDS011;4245;42.120;24.732;2022-11-20T09:50:11;25.95;;;12.63;;
8415;SDS011;4245;42.120;24.732;2022-11-20T09:52:47;19.77;;;11.57;;
8415;SDS011;4245;42.120;24.732;2022-11-20T09:55:25;19.35;;;8.68;;
8415;SDS011;4245;42.120;24.732;2022-11-20T09:57:55;14.27;;;7.40;;
8415;SDS011;4245;42.120;24.732;2022-11-20T10:00:25;11.00;;;7.82;;
8415;SDS011;4245;42.120;24.732;2022-11-20T10:02:58;15.98;;;8.18;;
8415;SDS011;4245;42.120;24.732;2022-11-20T10:05:29;12.20;;;8.27;;
8415;SDS011;4245;42.120;24.732;2022-11-20T10:08:04;14.07;;;7.80;;
8415;SDS011;4245;42.120;24.732;2022-11-20T10:10:40;8.65;;;5.30;;
8415;SDS011;4245;42.120;24.732;2022-11-20T10:13:15;8.73;;;5.75;;
8415;SDS011;4245;42.120;24.732;2022-11-20T10:15:53;8.73;;;5.68;;
8415;SDS011;4245;42.120;24.732;2022-11-20T10:18:35;13.65;;;5.47;;
8415;SDS011;4245;42.120;24.732;2022-11-20T10:21:09;11.95;;;6.20;;
8415;SDS011;4245;42.120;24.732;2022-11-20T10:23:49;11.60;;;6.43;;
8415;SDS011;4245;42.120;24.732;2022-11-20T10:26:29;12.63;;;6.07;;
8415;SDS011;4245;42.120;24.732;2022-11-20T10:29:08;13.52;;;5.57;;
8415;SDS011;4245;42.120;24.732;2022-11-20T10:31:39;8.50;;;5.63;;
8415;SDS011;4245;42.120;24.732;2022-11-20T10:34:13;15.63;;;6.45;;
8415;SDS011;4245;42.120;24.732;2022-11-20T10:36:47;18.88;;;6.65;;
8415;SDS011;4245;42.120;24.732;2022-11-20T10:39:22;15.48;;;6.13;;
8415;SDS011;4245;42.120;24.732;2022-11-20T10:41:56;17.52;;;6.00;;
8415;SDS011;4245;42.120;24.732;2022-11-20T10:44:26;10.75;;;5.72;;
8415;SDS011;4245;42.120;24.732;2022-11-20T10:47:12;11.45;;;5.65;;
8415;SDS011;4245;42.120;24.732;2022-11-20T10:49:43;12.98;;;5.90;;
8415;SDS011;4245;42.120;24.732;2022-11-20T10:52:14;15.13;;;7.05;;
8415;SDS011;4245;42.120;24.732;2022-11-20T10:54:53;13.40;;;5.43;;
8415;SDS011;4245;42.120;24.732;2022-11-20T10:57:41;13.43;;;6.28;;
8415;SDS011;4245;42.120;24.732;2022-11-20T11:00:17;17.55;;;6.32;;
8415;SDS011;4245;42.120;24.732;2022-11-20T11:02:45;12.90;;;6.18;;
8415;SDS011;4245;42.120;24.732;2022-11-20T11:05:21;11.73;;;5.85;;
8415;SDS011;4245;42.120;24.732;2022-11-20T11:07:54;15.45;;;6.47;;
8415;SDS011;4245;42.120;24.732;2022-11-20T11:10:24;11.63;;;6.88;;
8415;SDS011;4245;42.120;24.732;2022-11-20T11:12:55;16.45;;;7.20;;
8415;SDS011;4245;42.120;24.732;2022-11-20T11:15:26;19.63;;;10.15;;
8415;SDS011;4245;42.120;24.732;2022-11-20T11:17:54;14.80;;;7.95;;
8415;SDS011;4245;42.120;24.732;2022-11-20T11:20:23;12.35;;;7.72;;
8415;SDS011;4245;42.120;24.732;2022-11-20T11:22:52;13.75;;;7.28;;
8415;SDS011;4245;42.120;24.732;2022-11-20T11:25:24;13.90;;;7.43;;
8415;SDS011;4245;42.120;24.732;2022-11-20T11:27:54;14.52;;;7.32;;
8415;SDS011;4245;42.120;24.732;2022-11-20T11:30:22;18.33;;;7.45;;
8415;SDS011;4245;42.120;24.732;2022-11-20T11:32:50;19.33;;;7.55;;
8415;SDS011;4245;42.120;24.732;2022-11-20T11:35:21;16.85;;;9.20;;
8415;SDS011;4245;42.120;24.732;2022-11-20T11:37:53;19.50;;;7.07;;
8415;SDS011;4245;42.120;24.732;2022-11-20T11:40:28;12.43;;;7.65;;
8415;SDS011;4245;42.120;24.732;2022-11-20T11:42:58;15.00;;;7.78;;
8415;SDS011;4245;42.120;24.732;2022-11-20T11:45:27;17.13;;;7.68;;
8415;SDS011;4245;42.120;24.732;2022-11-20T11:47:54;20.27;;;8.77;;
8415;SDS011;4245;42.120;24.732;2022-11-20T11:50:25;19.60;;;8.43;;
8415;SDS011;4245;42.120;24.732;2022-11-20T11:53:05;22.58;;;8.55;;
8415;SDS011;4245;42.120;24.732;2022-11-20T11:55:37;20.30;;;7.90;;
8415;SDS011;4245;42.120;24.732;2022-11-20T11:58:13;22.33;;;8.25;;
8415;SDS011;4245;42.120;24.732;2022-11-20T12:00:48;19.23;;;7.70;;
8415;SDS011;4245;42.120;24.732;2022-11-20T12:03:21;15.90;;;7.47;;
8415;SDS011;4245;42.120;24.732;2022-11-20T12:05:56;15.45;;;7.03;;
8415;SDS011;4245;42.120;24.732;2022-11-20T12:08:27;17.07;;;7.27;;
8415;SDS011;4245;42.120;24.732;2022-11-20T12:10:59;17.33;;;7.30;;
8415;SDS011;4245;42.120;24.732;2022-11-20T12:13:36;25.17;;;7.73;;
8415;SDS011;4245;42.120;24.732;2022-11-20T12:16:11;11.53;;;6.83;;
8415;SDS011;4245;42.120;24.732;2022-11-20T12:18:39;21.83;;;11.37;;
8415;SDS011;4245;42.120;24.732;2022-11-20T12:21:12;25.83;;;8.73;;
8415;SDS011;4245;42.120;24.732;2022-11-20T12:23:48;18.33;;;7.93;;
8415;SDS011;4245;42.120;24.732;2022-11-20T12:26:29;18.80;;;6.85;;
8415;SDS011;4245;42.120;24.732;2022-11-20T12:29:10;14.67;;;6.93;;
8415;SDS011;4245;42.120;24.732;2022-11-20T12:31:51;17.67;;;6.93;;
8415;SDS011;4245;42.120;24.732;2022-11-20T12:37:22;23.03;;;6.63;;
8415;SDS011;4245;42.120;24.732;2022-11-20T12:40:02;15.30;;;5.20;;
8415;SDS011;4245;42.120;24.732;2022-11-20T12:42:49;15.30;;;5.70;;
8415;SDS011;4245;42.120;24.732;2022-11-20T12:48:42;18.43;;;5.87;;
8415;SDS011;4245;42.120;24.732;2022-11-20T12:54:25;16.43;;;4.20;;
8415;SDS011;4245;42.120;24.732;2022-11-20T12:57:04;18.43;;;4.97;;
8415;SDS011;4245;42.120;24.732;2022-11-20T12:59:46;15.47;;;5.40;;
8415;SDS011;4245;42.120;24.732;2022-11-20T13:02:23;12.73;;;4.50;;
8415;SDS011;4245;42.120;24.732;2022-11-20T13:05:03;11.90;;;3.70;;
8415;SDS011;4245;42.120;24.732;2022-11-20T13:07:43;10.40;;;3.60;;
8415;SDS011;4245;42.120;24.732;2022-11-20T13:10:16;9.93;;;3.13;;
8415;SDS011;4245;42.120;24.732;2022-11-20T13:12:49;12.80;;;4.30;;
8415;SDS011;4245;42.120;24.732;2022-11-20T13:15:23;10.43;;;2.90;;
8415;SDS011;4245;42.120;24.732;2022-11-20T13:18:11;15.00;;;3.90;;
8415;SDS011;4245;42.120;24.732;2022-11-20T13:20:42;13.95;;;3.95;;
8415;SDS011;4245;42.120;24.732;2022-11-20T13:23:11;9.33;;;3.63;;
8415;SDS011;4245;42.120;24.732;2022-11-20T13:25:39;14.87;;;3.43;;
8415;SDS011;4245;42.120;24.732;2022-11-20T13:30:53;13.87;;;3.70;;
8415;SDS011;4245;42.120;24.732;2022-11-20T13:33:22;10.73;;;3.07;;
8415;SDS011;4245;42.120;24.732;2022-11-20T13:35:57;12.80;;;3.70;;
8415;SDS011;4245;42.120;24.732;2022-11-20T13:38:25;17.00;;;3.70;;
8415;SDS011;4245;42.120;24.732;2022-11-20T13:40:54;14.40;;;4.20;;
8415;SDS011;4245;42.120;24.732;2022-11-20T13:43:26;18.63;;;4.23;;
8415;SDS011;4245;42.120;24.732;2022-11-20T13:45:59;11.07;;;4.10;;
8415;SDS011;4245;42.120;24.732;2022-11-20T13:48:29;16.97;;;4.10;;
8415;SDS011;4245;42.120;24.732;2022-11-20T13:51:07;14.10;;;3.10;;
8415;SDS011;4245;42.120;24.732;2022-11-20T13:57:05;15.40;;;2.40;;
8415;SDS011;4245;42.120;24.732;2022-11-20T13:59:47;11.83;;;2.93;;
8415;SDS011;4245;42.120;24.732;2022-11-20T14:02:23;15.77;;;2.63;;
8415;SDS011;4245;42.120;24.732;2022-11-20T14:04:53;19.87;;;2.97;;
8415;SDS011;4245;42.120;24.732;2022-11-20T14:07:24;7.43;;;2.30;;
8415;SDS011;4245;42.120;24.732;2022-11-20T14:09:57;12.63;;;2.33;;
8415;SDS011;4245;42.120;24.732;2022-11-20T14:12:29;8.73;;;1.90;;
8415;SDS011;4245;42.120;24.732;2022-11-20T14:14:57;5.93;;;1.90;;
8415;SDS011;4245;42.120;24.732;2022-11-20T14:17:29;2.37;;;1.40;;
8415;SDS011;4245;42.120;24.732;2022-11-20T14:19:58;5.33;;;1.73;;
8415;SDS011;4245;42.120;24.732;2022-11-20T14:22:27;4.27;;;1.70;;
8415;SDS011;4245;42.120;24.732;2022-11-20T14:25:02;2.80;;;1.90;;
8415;SDS011;4245;42.120;24.732;2022-11-20T14:27:34;3.00;;;1.80;;
8415;SDS011;4245;42.120;24.732;2022-11-20T14:30:04;3.50;;;2.10;;
8415;SDS011;4245;42.120;24.732;2022-11-20T14:32:32;4.83;;;1.60;;
8415;SDS011;4245;42.120;24.732;2022-11-20T14:35:06;3.50;;;2.10;;
8415;SDS011;4245;42.120;24.732;2022-11-20T14:37:36;8.30;;;3.80;;
8415;SDS011;4245;42.120;24.732;2022-11-20T14:40:14;5.03;;;2.00;;
8415;SDS011;4245;42.120;24.732;2022-11-20T14:42:50;10.57;;;2.30;;
8415;SDS011;4245;42.120;24.732;2022-11-20T14:45:17;7.43;;;1.83;;
8415;SDS011;4245;42.120;24.732;2022-11-20T14:47:45;3.77;;;2.30;;
8415;SDS011;4245;42.120;24.732;2022-11-20T14:50:13;3.07;;;2.00;;
8415;SDS011;4245;42.120;24.732;2022-11-20T14:52:52;3.27;;;1.77;;
8415;SDS011;4245;42.120;24.732;2022-11-20T14:55:26;2.53;;;1.67;;
8415;SDS011;4245;42.120;24.732;2022-11-20T14:58:00;2.20;;;1.40;;
8415;SDS011;4245;42.120;24.732;2022-11-20T15:00:28;2.60;;;1.10;;
8415;SDS011;4245;42.120;24.732;2022-11-20T15:02:56;3.77;;;1.60;;
8415;SDS011;4245;42.120;24.732;2022-11-20T15:05:23;7.68;;;3.83;;
8415;SDS011;4245;42.120;24.732;2022-11-20T15:08:03;7.37;;;2.37;;
8415;SDS011;4245;42.120;24.732;2022-11-20T15:10:32;8.02;;;3.42;;
8415;SDS011;4245;42.120;24.732;2022-11-20T15:13:02;3.85;;;2.10;;
8415;SDS011;4245;42.120;24.732;2022-11-20T15:15:32;11.73;;;4.65;;
8415;SDS011;4245;42.120;24.732;2022-11-20T15:18:02;7.60;;;3.73;;
8415;SDS011;4245;42.120;24.732;2022-11-20T15:20:31;8.77;;;3.53;;